Time;durP1;ratioP1;P1;durP2;ratioP2;P2;SDS_P1;SDS_P2;PMS_P1;PMS_P2;Temp;Humidity;BMP_temperature;BMP_pressure;BME280_temperature;BME280_humidity;BME280_pressure;Samples;Min_cycle;Max_cycle;Signal;HPM_P1;HPM_P2
2022/11/11 00:01:43;;;;;;;72.20;65.30;;;;;;;4.28;99.97;99263.03;104702;1318;21977;-87
2022/11/11 00:04:56;;;;;;;57.50;52.00;;;;;;;4.19;99.17;99265.28;104961;1298;23225;31
2022/11/11 00:07:43;;;;;;;65.60;59.00;;;;;;;4.21;99.31;99273.55;104625;1281;22585;-83
2022/11/11 00:10:34;;;;;;;65.60;59.50;;;;;;;4.23;99.78;99275.73;106454;1292;22706;31
2022/11/11 00:13:20;;;;;;;60.00;54.20;;;;;;;4.32;100.00;99275.95;106220;1282;23810;-92
2022/11/11 00:16:17;;;;;;;67.20;60.90;;;;;;;4.40;100.00;99283.70;104121;1296;22190;-88
2022/11/11 00:25:25;;;;;;;67.40;60.70;;;;;;;4.36;98.97;99288.80;101911;1319;25579;-90
2022/11/11 00:28:15;;;;;;;63.80;57.30;;;;;;;4.22;99.33;99292.63;102273;1306;23133;-93
2022/11/11 00:31:08;;;;;;;62.30;56.40;;;;;;;4.18;99.73;99293.94;105099;1298;22593;-89
2022/11/11 00:34:01;;;;;;;56.60;51.40;;;;;;;4.26;100.00;99296.80;106043;1297;23575;31
2022/11/11 00:36:52;;;;;;;52.10;47.20;;;;;;;4.38;99.99;99301.45;106518;1298;23575;31
2022/11/11 00:39:39;;;;;;;54.70;49.50;;;;;;;4.42;99.96;99305.68;104743;1289;24247;-90
2022/11/11 00:42:26;;;;;;;55.10;50.00;;;;;;;4.51;99.98;99307.62;103571;1324;22564;-91
2022/11/11 00:45:12;;;;;;;59.40;53.90;;;;;;;4.54;100.00;99302.66;104342;1310;22377;-83
2022/11/11 00:51:04;;;;;;;49.00;44.40;;;;;;;4.77;100.00;99296.89;103931;1327;22666;-90
2022/11/11 00:53:51;;;;;;;49.70;45.10;;;;;;;4.91;100.00;99291.69;103779;1327;22602;-91
2022/11/11 00:56:38;;;;;;;46.90;42.10;;;;;;;5.06;100.00;99290.64;102807;1327;22629;-91
2022/11/11 00:59:25;;;;;;;46.20;41.70;;;;;;;5.20;100.00;99292.05;103088;1302;22600;-86
2022/11/11 01:02:12;;;;;;;47.20;42.50;;;;;;;5.28;100.00;99288.83;102845;1309;22511;-93
2022/11/11 01:04:59;;;;;;;47.40;42.90;;;;;;;5.33;100.00;99291.72;102935;1310;24420;-91
2022/11/11 01:07:48;;;;;;;46.50;41.70;;;;;;;5.38;100.00;99290.36;102343;1318;22569;-92
2022/11/11 01:10:40;;;;;;;44.40;40.40;;;;;;;5.47;100.00;99294.36;102486;1328;22553;-88
2022/11/11 01:13:32;;;;;;;45.50;41.10;;;;;;;5.57;100.00;99288.68;102103;1318;25524;-91
2022/11/11 01:16:25;;;;;;;50.00;45.10;;;;;;;5.66;100.00;99288.12;101713;1327;22483;-90
2022/11/11 01:19:11;;;;;;;47.60;43.00;;;;;;;5.71;100.00;99284.61;102423;1328;22483;-88
2022/11/11 01:21:58;;;;;;;44.30;39.80;;;;;;;5.75;100.00;99289.02;103563;1309;22523;-95
2022/11/11 01:24:45;;;;;;;41.20;37.20;;;;;;;5.83;100.00;99288.19;103543;1327;22715;-88
2022/11/11 01:27:33;;;;;;;43.60;39.40;;;;;;;5.91;100.00;99283.82;101575;1327;24097;-85
2022/11/11 01:30:20;;;;;;;45.00;40.40;;;;;;;5.99;100.00;99278.71;101654;1310;25011;-88
2022/11/11 01:33:09;;;;;;;48.10;43.10;;;;;;;6.05;100.00;99278.68;101858;1322;22506;-86
2022/11/11 01:36:02;;;;;;;49.00;44.40;;;;;;;6.08;100.00;99278.29;101539;1311;22484;-86
2022/11/11 01:38:55;;;;;;;45.10;40.70;;;;;;;6.09;100.00;99280.02;104065;1315;22562;-82
2022/11/11 01:41:42;;;;;;;45.70;41.40;;;;;;;6.10;100.00;99276.45;104017;1326;22501;-85
2022/11/11 01:44:46;;;;;;;44.70;40.50;;;;;;;6.13;100.00;99278.43;101651;1321;22498;-87
2022/11/11 01:49:17;;;;;;;44.80;40.30;;;;;;;6.17;100.00;99281.18;101718;1315;22519;-88
2022/11/11 01:51:05;;;;;;;45.00;40.50;;;;;;;6.14;100.00;99285.98;101734;1327;22693;-85
2022/11/11 01:53:59;;;;;;;45.60;41.10;;;;;;;6.16;100.00;99286.20;101705;1302;25760;-86
2022/11/11 01:56:51;;;;;;;41.50;34.90;;;;;;;6.20;100.00;99287.73;101546;1318;22542;-85
2022/11/11 01:59:40;;;;;;;43.90;39.80;;;;;;;6.22;100.00;99293.92;101503;1304;24470;-86
2022/11/11 02:02:36;;;;;;;46.60;42.10;;;;;;;6.21;100.00;99292.36;101747;1327;22519;-84
2022/11/11 02:05:42;;;;;;;43.20;38.70;;;;;;;6.22;100.00;99285.27;101773;1328;25716;-86
2022/11/11 02:08:34;;;;;;;42.50;38.20;;;;;;;6.19;100.00;99290.31;101693;1308;25403;-85
2022/11/11 02:14:34;;;;;;;36.00;32.60;;;;;;;6.21;100.00;99280.36;101800;1327;22548;-85
2022/11/11 02:17:25;;;;;;;42.90;38.60;;;;;;;6.20;100.00;99285.95;101843;1327;25325;-85
2022/11/11 02:20:17;;;;;;;42.40;37.90;;;;;;;6.16;100.00;99286.63;101906;1319;22486;-86
2022/11/11 02:23:30;;;;;;;40.40;36.50;;;;;;;6.16;100.00;99284.70;101713;1316;22750;-85
2022/11/11 02:26:17;;;;;;;38.20;34.40;;;;;;;6.17;100.00;99291.94;101708;1319;22609;-86
2022/11/11 02:29:12;;;;;;;39.50;35.70;;;;;;;6.20;100.00;99296.13;101797;1327;22509;-86
2022/11/11 02:31:58;;;;;;;40.10;36.10;;;;;;;6.19;100.00;99299.70;101728;1328;24470;-86
2022/11/11 02:34:46;;;;;;;38.30;34.60;;;;;;;6.16;100.00;99300.91;101850;1328;22558;-84
2022/11/11 02:37:32;;;;;;;39.60;35.60;;;;;;;6.17;100.00;99304.09;101739;1312;22670;-86
2022/11/11 02:40:29;;;;;;;38.10;34.30;;;;;;;6.23;100.00;99309.84;101980;1322;22504;-84
2022/11/11 02:43:16;;;;;;;40.70;36.70;;;;;;;6.24;100.00;99312.23;101756;1310;25359;-87
2022/11/11 02:46:05;;;;;;;38.30;34.70;;;;;;;6.23;100.00;99306.61;101859;1322;22631;-86
2022/11/11 02:48:52;;;;;;;38.20;34.60;;;;;;;6.22;100.00;99305.77;101802;1328;22621;-87
2022/11/11 02:51:38;;;;;;;38.00;34.10;;;;;;;6.21;100.00;99306.42;101722;1326;25413;-88
2022/11/11 02:54:25;;;;;;;36.60;33.20;;;;;;;6.22;100.00;99307.83;101879;1310;22466;-88
2022/11/11 02:57:12;;;;;;;36.00;32.50;;;;;;;6.24;100.00;99308.85;101938;1310;22645;-89
2022/11/11 02:59:59;;;;;;;36.80;33.20;;;;;;;6.29;100.00;99314.85;101876;1309;24426;-89
2022/11/11 03:02:47;;;;;;;37.90;34.30;;;;;;;6.33;100.00;99309.64;101806;1326;22631;-87
2022/11/11 03:05:34;;;;;;;38.30;34.70;;;;;;;6.33;100.00;99310.07;101559;1322;24030;-88
2022/11/11 03:08:21;;;;;;;36.50;32.60;;;;;;;6.35;100.00;99307.95;101603;1312;22580;-86
2022/11/11 03:11:08;;;;;;;34.90;31.60;;;;;;;6.42;100.00;99311.04;101733;1327;25299;-86
2022/11/11 03:13:59;;;;;;;37.70;34.00;;;;;;;6.46;100.00;99306.23;101859;1326;22554;-86
2022/11/11 03:19:51;;;;;;;37.00;33.50;;;;;;;6.49;100.00;99311.83;101810;1310;24453;-87
2022/11/11 03:22:38;;;;;;;35.10;30.80;;;;;;;6.46;100.00;99311.35;101693;1327;25360;-88
2022/11/11 03:25:46;;;;;;;36.80;32.90;;;;;;;6.43;100.00;99307.00;101511;1326;24352;-86
2022/11/11 03:28:33;;;;;;;37.50;33.80;;;;;;;6.46;100.00;99308.23;101584;1327;22520;-88
2022/11/11 03:31:19;;;;;;;37.00;33.40;;;;;;;6.50;100.00;99308.67;101702;1310;22580;-87
2022/11/11 03:34:18;;;;;;;37.40;33.80;;;;;;;6.53;100.00;99305.94;101733;1315;22501;-87
2022/11/11 03:40:12;;;;;;;37.40;33.70;;;;;;;6.51;100.00;99310.38;102048;1305;25306;-87
2022/11/11 03:42:59;;;;;;;35.00;31.50;;;;;;;6.54;100.00;99307.32;102248;1308;24528;-87
2022/11/11 03:45:55;;;;;;;36.50;32.80;;;;;;;6.57;100.00;99300.63;102801;1326;22931;-87
2022/11/11 03:48:42;;;;;;;35.50;31.80;;;;;;;6.59;99.96;99295.59;101741;1328;26653;-86
2022/11/11 03:51:29;;;;;;;38.50;34.80;;;;;;;6.60;100.00;99301.88;101993;1326;23652;-88
2022/11/11 03:54:15;;;;;;;40.00;36.00;;;;;;;6.61;100.00;99302.36;102469;1327;24865;-86
2022/11/11 04:00:11;;;;;;;36.90;33.20;;;;;;;6.63;100.00;99304.60;103676;1302;22488;-84
2022/11/11 04:21:54;;;;;;;43.70;39.70;;;;;;;6.34;99.47;99298.03;101885;1327;22584;-86
2022/11/11 04:29:27;;;;;;;47.10;42.90;;;;;;;6.29;99.47;99300.56;101551;1309;22544;-85
2022/11/11 04:30:53;;;;;;;49.00;44.50;;;;;;;6.25;99.72;99295.88;101569;1305;22512;-87
2022/11/11 04:33:39;;;;;;;49.80;44.90;;;;;;;6.20;99.67;99296.02;102932;1327;22507;-85
2022/11/11 04:36:26;;;;;;;44.20;40.00;;;;;;;6.17;99.44;99299.33;104204;1327;22605;-86
2022/11/11 04:42:17;;;;;;;44.70;40.60;;;;;;;6.16;99.39;99299.11;101486;1327;22651;-86
2022/11/11 04:48:12;;;;;;;55.80;50.90;;;;;;;6.02;98.96;99301.05;101414;1321;25487;-85
2022/11/11 04:50:59;;;;;;;52.80;47.90;;;;;;;5.91;98.96;99304.76;101815;1311;22506;-87
2022/11/11 04:53:45;;;;;;;43.30;38.90;;;;;;;5.83;98.73;99313.29;101478;1327;24258;-87
2022/11/11 04:56:46;;;;;;;50.50;46.00;;;;;;;5.66;98.52;99309.97;101421;1318;22638;-88
2022/11/11 04:59:33;;;;;;;56.40;44.80;;;;;;;5.63;98.99;99315.17;101389;1302;25724;-89
2022/11/11 05:05:26;;;;;;;44.60;40.30;;;;;;;5.53;99.06;99318.23;101423;1315;24403;-87
2022/11/11 05:11:19;;;;;;;38.70;35.10;;;;;;;5.26;98.32;99333.67;101478;1327;22503;-86
2022/11/11 05:25:24;;;;;;;53.00;48.10;;;;;;;4.95;99.24;99356.45;101876;1324;22653;-86
2022/11/11 05:26:31;;;;;;;46.90;42.40;;;;;;;5.02;99.53;99354.81;101730;1311;22891;-86
2022/11/11 05:29:18;;;;;;;46.10;41.80;;;;;;;5.09;99.24;99353.20;101661;1311;22489;-85
2022/11/11 05:32:07;;;;;;;39.90;36.00;;;;;;;5.12;99.25;99349.47;101727;1319;25341;-84
2022/11/11 05:34:53;;;;;;;44.20;40.20;;;;;;;5.17;99.46;99346.55;101638;1327;24399;-85
2022/11/11 05:37:40;;;;;;;47.20;43.00;;;;;;;5.14;99.07;99347.21;101554;1326;22532;-84
2022/11/11 05:40:27;;;;;;;41.40;37.60;;;;;;;5.16;99.60;99357.75;101862;1309;22523;-84
2022/11/11 05:43:13;;;;;;;40.80;36.90;;;;;;;5.20;98.96;99359.38;101808;1310;22718;-85
2022/11/11 05:46:00;;;;;;;40.70;36.60;;;;;;;5.23;99.19;99360.98;101528;1319;22526;-83
2022/11/11 05:51:52;;;;;;;45.80;41.50;;;;;;;5.40;99.56;99367.02;101549;1308;24279;-83
2022/11/11 05:54:39;;;;;;;41.50;38.00;;;;;;;5.45;99.71;99371.05;101553;1309;22513;-84
2022/11/11 05:57:25;;;;;;;43.40;39.30;;;;;;;5.42;99.02;99379.77;101560;1309;22629;-85
2022/11/11 06:00:12;;;;;;;40.90;37.30;;;;;;;5.40;99.06;99379.27;101831;1312;22498;-84
2022/11/11 06:03:04;;;;;;;38.10;34.40;;;;;;;5.43;99.24;99379.45;101782;1303;22776;-83
2022/11/11 06:05:51;;;;;;;41.70;37.70;;;;;;;5.51;99.46;99372.15;101611;1309;24483;-85
2022/11/11 06:08:39;;;;;;;44.20;40.30;;;;;;;5.56;99.21;99366.53;101565;1322;22736;-87
2022/11/11 06:11:29;;;;;;;46.50;42.10;;;;;;;5.58;99.58;99376.60;101629;1327;22815;-88
2022/11/11 06:14:18;;;;;;;45.70;41.40;;;;;;;5.62;99.56;99375.70;101887;1322;22496;-86
2022/11/11 06:17:05;;;;;;;40.50;36.80;;;;;;;5.67;99.23;99385.16;103444;1328;22539;-83
2022/11/11 06:19:51;;;;;;;41.30;37.50;;;;;;;5.68;99.27;99388.73;104054;1327;22780;-85
2022/11/11 06:22:56;;;;;;;42.00;38.20;;;;;;;5.76;99.44;99383.91;101820;1312;25485;-86
2022/11/11 06:28:50;;;;;;;41.80;38.00;;;;;;;5.90;99.50;99381.70;101699;1327;22509;-86
2022/11/11 06:31:37;;;;;;;42.20;38.30;;;;;;;5.93;99.78;99381.70;101579;1310;22638;-90
2022/11/11 06:34:24;;;;;;;39.00;35.60;;;;;;;6.02;99.73;99381.81;101598;1303;25240;-87
2022/11/11 06:37:11;;;;;;;37.80;34.10;;;;;;;6.12;99.85;99379.98;101485;1327;22629;-87
2022/11/11 06:39:57;;;;;;;33.80;30.50;;;;;;;6.24;99.91;99379.03;101859;1323;25428;-91
2022/11/11 06:42:44;;;;;;;43.80;39.80;;;;;;;6.35;99.97;99378.53;102845;1306;22632;-86
2022/11/11 06:45:32;;;;;;;40.30;35.20;;;;;;;6.41;99.67;99374.30;103568;1327;22462;-90
2022/11/11 06:48:19;;;;;;;37.30;33.60;;;;;;;6.42;99.58;99374.38;103185;1313;24399;-88
2022/11/11 06:51:06;;;;;;;34.80;31.10;;;;;;;6.47;99.59;99377.45;102904;1327;24442;-92
2022/11/11 06:53:52;;;;;;;32.70;29.40;;;;;;;6.52;99.54;99385.27;103408;1297;23872;-89
2022/11/11 06:56:39;;;;;;;31.70;28.50;;;;;;;6.59;99.52;99386.65;101785;1311;24223;-88
2022/11/11 06:59:26;;;;;;;34.10;30.80;;;;;;;6.62;99.47;99385.61;101672;1332;22660;-88
2022/11/11 07:02:13;;;;;;;36.30;32.70;;;;;;;6.65;99.90;99388.42;101600;1312;22909;-88
2022/11/11 07:05:00;;;;;;;32.70;29.30;;;;;;;6.70;99.88;99386.48;101801;1333;25679;-88
2022/11/11 07:07:46;;;;;;;30.30;27.20;;;;;;;6.70;99.77;99385.00;101936;1328;22504;-89
2022/11/11 07:10:36;;;;;;;29.10;26.20;;;;;;;6.69;99.61;99381.39;101945;1331;22496;-91
2022/11/11 07:13:23;;;;;;;29.80;26.90;;;;;;;6.72;99.70;99380.59;101483;1311;24339;-91
2022/11/11 07:16:11;;;;;;;33.60;29.80;;;;;;;6.75;99.83;99380.86;101597;1321;22603;-88
2022/11/11 07:18:57;;;;;;;33.90;28.40;;;;;;;6.79;100.00;99386.85;101652;1310;22623;-89
2022/11/11 07:21:44;;;;;;;29.60;25.40;;;;;;;6.88;99.85;99388.89;101719;1327;22914;-89
2022/11/11 07:24:31;;;;;;;30.10;26.00;;;;;;;6.95;99.69;99383.88;102575;1321;22458;-89
2022/11/11 07:27:17;;;;;;;44.50;25.60;;;;;;;7.00;99.51;99381.90;103331;1324;22504;-92
2022/11/11 07:30:05;;;;;;;30.60;27.40;;;;;;;7.05;99.76;99380.70;103075;1327;24374;-91
2022/11/11 07:32:52;;;;;;;28.70;26.00;;;;;;;7.12;99.66;99377.28;102070;1326;22749;-88
2022/11/11 07:35:39;;;;;;;32.60;27.50;;;;;;;7.19;99.71;99371.36;101806;1328;23894;-87
2022/11/11 07:38:26;;;;;;;32.10;27.80;;;;;;;7.25;99.47;99368.46;101882;1308;25240;-87
2022/11/11 07:41:13;;;;;;;34.10;27.50;;;;;;;7.26;99.32;99370.91;101804;1308;24449;-88
2022/11/11 07:44:01;;;;;;;34.60;28.70;;;;;;;7.26;99.40;99368.11;101746;1327;24329;-89
2022/11/11 07:46:47;;;;;;;31.40;27.50;;;;;;;7.22;99.12;99364.45;101927;1327;25682;-90
2022/11/11 07:49:33;;;;;;;30.10;27.20;;;;;;;7.24;98.88;99359.06;102115;1328;23173;-91
2022/11/11 07:52:22;;;;;;;32.30;29.20;;;;;;;7.27;98.63;99355.48;102176;1328;23494;-91
2022/11/11 07:55:09;;;;;;;36.90;31.60;;;;;;;7.29;98.80;99355.11;101925;1327;24310;-88
2022/11/11 07:57:57;;;;;;;30.20;27.00;;;;;;;7.31;98.27;99354.35;101491;1305;25401;-88
2022/11/11 08:00:44;;;;;;;29.40;26.40;;;;;;;7.31;98.17;99347.86;101571;1327;25229;-87
2022/11/11 08:03:30;;;;;;;31.30;28.00;;;;;;;7.34;97.98;99351.67;101629;1304;22511;-89
2022/11/11 08:06:19;;;;;;;30.60;27.60;;;;;;;7.38;98.23;99352.28;101713;1318;22486;-88
2022/11/11 08:09:06;;;;;;;35.10;31.70;;;;;;;7.40;98.24;99358.48;102009;1308;25555;-87
2022/11/11 08:14:57;;;;;;;34.70;31.20;;;;;;;7.44;97.99;99355.50;101688;1327;22501;-86
2022/11/11 08:17:51;;;;;;;34.20;31.00;;;;;;;7.53;97.73;99358.61;101906;1309;22634;-84
2022/11/11 08:20:38;;;;;;;36.80;33.20;;;;;;;7.63;97.89;99352.70;101955;1327;25702;-88
2022/11/11 08:23:32;;;;;;;37.40;33.70;;;;;;;7.75;98.23;99344.59;101742;1324;22556;-86
2022/11/11 08:26:39;;;;;;;47.50;40.90;;;;;;;7.90;97.81;99346.79;101730;1326;22496;-88
2022/11/11 08:29:25;;;;;;;37.60;33.70;;;;;;;8.00;97.75;99348.61;101827;1317;22573;-89
2022/11/11 08:32:12;;;;;;;39.70;35.40;;;;;;;8.12;97.35;99352.80;101796;1310;24407;-89
2022/11/11 08:34:59;;;;;;;42.30;38.10;;;;;;;8.17;96.82;99359.91;102564;1308;22475;-86
2022/11/11 08:37:46;;;;;;;46.80;42.10;;;;;;;8.23;96.82;99361.11;104310;1309;22557;-84
2022/11/11 08:40:32;;;;;;;41.10;37.00;;;;;;;8.28;96.78;99364.13;101982;1305;23255;-88
2022/11/11 08:43:22;;;;;;;35.50;32.10;;;;;;;8.28;95.09;99363.54;101881;1309;22497;-87
2022/11/11 08:46:10;;;;;;;38.40;34.80;;;;;;;8.30;94.71;99369.27;101549;1309;25588;-87
2022/11/11 08:48:57;;;;;;;36.90;33.40;;;;;;;8.32;94.81;99376.55;101527;1326;25477;-87
2022/11/11 08:51:44;;;;;;;40.30;35.10;;;;;;;8.37;94.89;99375.93;101672;1318;22530;-90
2022/11/11 08:54:32;;;;;;;42.00;38.10;;;;;;;8.43;94.45;99381.55;101539;1320;22568;-87
2022/11/11 08:57:18;;;;;;;40.10;36.30;;;;;;;8.51;95.11;99383.93;101626;1314;22625;-86
2022/11/11 09:00:06;;;;;;;38.90;35.00;;;;;;;8.65;95.56;99391.09;101776;1326;22563;-87
2022/11/11 09:02:53;;;;;;;36.90;33.30;;;;;;;8.76;94.65;99385.31;101627;1327;24235;-87
2022/11/11 09:05:40;;;;;;;35.20;31.80;;;;;;;8.83;93.89;99373.20;101857;1319;22667;-88
2022/11/11 09:08:27;;;;;;;40.70;36.60;;;;;;;8.92;94.04;99374.48;101701;1309;25670;-88
2022/11/11 09:11:13;;;;;;;40.30;36.50;;;;;;;8.98;93.00;99370.79;101816;1311;24054;-87
2022/11/11 09:14:01;;;;;;;38.90;34.00;;;;;;;9.03;93.36;99372.19;101800;1312;24278;-89
2022/11/11 09:16:48;;;;;;;36.30;32.80;;;;;;;9.18;93.16;99368.79;101802;1327;22737;-87
2022/11/11 09:19:35;;;;;;;32.40;29.00;;;;;;;9.34;92.85;99369.88;101736;1310;25978;-86
2022/11/11 09:22:21;;;;;;;31.10;28.20;;;;;;;9.44;92.38;99368.67;101716;1302;22638;-86
2022/11/11 09:25:08;;;;;;;31.00;27.50;;;;;;;9.51;90.51;99364.38;101826;1309;25318;-88
2022/11/11 09:28:00;;;;;;;28.60;25.80;;;;;;;9.50;89.53;99376.55;101514;1313;22672;-86
2022/11/11 09:30:46;;;;;;;29.10;25.20;;;;;;;9.50;89.35;99389.07;101724;1328;24276;-86
2022/11/11 09:33:33;;;;;;;24.90;22.40;;;;;;;9.55;88.84;99382.98;101379;1310;24294;-86
2022/11/11 09:36:20;;;;;;;22.80;19.90;;;;;;;9.63;88.76;99380.27;101567;1326;25286;-88
2022/11/11 09:39:07;;;;;;;23.90;18.60;;;;;;;9.68;87.91;99392.95;101630;1312;22638;-88
2022/11/11 09:42:16;;;;;;;21.80;19.50;;;;;;;9.68;87.74;99395.01;101853;1312;22508;-86
2022/11/11 09:45:25;;;;;;;16.30;13.20;;;;;;;9.71;87.98;99389.96;101702;1318;22554;-84
2022/11/11 09:48:40;;;;;;;17.40;14.80;;;;;;;9.75;86.68;99387.20;101473;1319;22535;-85
2022/11/11 09:52:02;;;;;;;21.00;15.60;;;;;;;9.73;86.84;99390.23;102444;1326;22617;-83
2022/11/11 09:54:52;;;;;;;18.70;16.50;;;;;;;9.76;86.11;99392.05;101772;1312;22639;-84
2022/11/11 09:58:03;;;;;;;21.10;15.70;;;;;;;9.79;87.03;99391.70;101919;1326;22619;-86
2022/11/11 10:01:00;;;;;;;16.30;14.50;;;;;;;9.91;86.61;99388.41;101627;1327;22973;-85
2022/11/11 10:03:59;;;;;;;18.80;15.40;;;;;;;9.94;86.12;99390.41;101752;1327;23627;-84
2022/11/11 10:06:49;;;;;;;18.50;16.60;;;;;;;9.96;87.03;99391.99;101797;1313;25734;-87
2022/11/11 10:09:53;;;;;;;19.00;17.10;;;;;;;10.00;86.61;99394.71;102127;1309;22471;-87
2022/11/11 10:12:48;;;;;;;22.20;19.70;;;;;;;10.00;86.52;99387.23;102646;1310;22553;-85
2022/11/11 10:15:49;;;;;;;18.80;15.40;;;;;;;10.03;86.57;99382.35;102733;1325;22691;-87
2022/11/11 10:18:38;;;;;;;26.60;20.80;;;;;;;10.05;86.38;99380.91;103273;1322;22589;-86
2022/11/11 10:21:45;;;;;;;26.50;22.30;;;;;;;10.01;85.66;99386.91;102409;1309;25404;-86
2022/11/11 10:25:12;;;;;;;18.30;16.40;;;;;;;9.92;84.71;99392.17;102611;1308;24409;-86
2022/11/11 10:28:02;;;;;;;23.30;20.70;;;;;;;9.87;84.14;99390.91;102421;1327;22622;-87
2022/11/11 10:30:51;;;;;;;20.30;17.60;;;;;;;9.86;84.38;99391.33;102021;1327;22629;-86
2022/11/11 10:34:16;;;;;;;21.10;16.80;;;;;;;9.86;84.26;99390.14;101821;1327;22696;-88
2022/11/11 10:37:17;;;;;;;23.50;21.10;;;;;;;9.84;84.07;99381.13;100874;1336;22890;-86
2022/11/11 10:40:23;;;;;;;34.20;26.80;;;;;;;9.87;84.09;99380.34;101279;1333;24315;-86
2022/11/11 10:43:22;;;;;;;26.20;22.70;;;;;;;9.95;83.82;99381.53;101290;1321;22626;-86
2022/11/11 10:46:21;;;;;;;27.60;24.00;;;;;;;10.09;84.54;99374.04;101396;1336;24320;-88
2022/11/11 10:49:16;;;;;;;20.90;18.60;;;;;;;10.29;84.24;99371.70;101231;1327;22500;-87
2022/11/11 10:52:25;;;;;;;25.30;20.40;;;;;;;10.37;83.86;99369.13;100885;1336;22919;-82
2022/11/11 10:55:18;;;;;;;23.80;21.00;;;;;;;10.55;84.54;99371.85;102865;1335;22539;-83
2022/11/11 10:58:40;;;;;;;23.30;20.90;;;;;;;10.81;83.86;99365.45;101552;1335;25289;-83
2022/11/11 11:01:36;;;;;;;19.80;16.70;;;;;;;11.09;81.96;99358.04;101212;1336;22573;-83
2022/11/11 11:04:35;;;;;;;21.60;17.90;;;;;;;11.29;81.97;99356.61;101102;1336;24378;-84
2022/11/11 11:07:29;;;;;;;20.70;18.40;;;;;;;11.44;82.16;99355.07;101087;1311;23300;-84
2022/11/11 11:10:25;;;;;;;26.70;21.30;;;;;;;11.38;82.22;99356.69;101086;1311;22508;-83
2022/11/11 11:13:44;;;;;;;21.80;18.50;;;;;;;11.31;81.56;99356.25;101816;1319;22507;-85
2022/11/11 11:16:36;;;;;;;20.70;18.20;;;;;;;11.21;80.52;99359.46;101691;1308;22538;-84
2022/11/11 11:19:27;;;;;;;19.30;16.80;;;;;;;11.14;80.44;99352.54;101682;1326;22610;-85
2022/11/11 11:22:13;;;;;;;19.70;16.80;;;;;;;11.17;80.89;99346.50;101622;1310;22529;-86
2022/11/11 11:25:11;;;;;;;19.60;17.50;;;;;;;11.23;81.26;99343.55;101750;1310;24482;-84
2022/11/11 11:28:11;;;;;;;21.40;17.00;;;;;;;11.41;80.55;99341.79;101558;1321;22543;-84
2022/11/11 11:31:07;;;;;;;19.30;17.30;;;;;;;11.77;79.72;99339.96;101432;1312;24399;-86
2022/11/11 11:33:55;;;;;;;20.70;18.30;;;;;;;12.33;80.05;99344.43;101590;1326;22496;-85
2022/11/11 11:36:41;;;;;;;19.50;17.60;;;;;;;12.67;79.18;99349.98;101644;1309;22532;-83
2022/11/11 11:39:37;;;;;;;17.00;15.10;;;;;;;12.71;77.39;99350.90;101878;1327;25292;-84
2022/11/11 11:42:33;;;;;;;21.20;17.50;;;;;;;12.58;78.49;99351.71;101744;1326;22509;-84
2022/11/11 11:45:25;;;;;;;17.00;13.40;;;;;;;12.47;77.26;99344.45;101750;1313;23389;-86
2022/11/11 11:48:31;;;;;;;17.30;12.80;;;;;;;12.37;75.98;99351.50;101767;1327;22533;-83
2022/11/11 11:51:24;;;;;;;14.90;11.50;;;;;;;12.25;75.82;99345.43;101421;1304;22784;-83
2022/11/11 11:54:29;;;;;;;20.20;12.80;;;;;;;12.15;75.13;99341.56;101837;1327;24342;-86
2022/11/11 11:57:39;;;;;;;18.50;15.20;;;;;;;12.11;75.14;99334.81;101985;1327;24279;-86
2022/11/11 12:00:34;;;;;;;17.90;12.20;;;;;;;12.13;75.30;99338.16;101603;1327;25722;-82
2022/11/11 12:03:21;;;;;;;22.70;18.40;;;;;;;12.19;75.12;99344.04;101528;1313;23493;-83
2022/11/11 12:06:16;;;;;;;16.10;12.80;;;;;;;12.16;74.97;99339.02;101372;1309;25353;-83
2022/11/11 12:09:05;;;;;;;17.60;13.80;;;;;;;12.10;74.47;99339.20;101825;1319;22629;-84
2022/11/11 12:12:04;;;;;;;15.50;12.50;;;;;;;11.99;73.74;99333.66;101685;1315;22529;-84
2022/11/11 12:15:22;;;;;;;21.50;16.50;;;;;;;11.88;74.71;99333.92;101892;1319;22524;-89
2022/11/11 12:18:39;;;;;;;23.90;14.10;;;;;;;11.78;75.15;99326.30;102170;1309;22628;-87
2022/11/11 12:21:32;;;;;;;17.40;12.00;;;;;;;11.77;75.28;99335.69;102086;1310;22656;-85
2022/11/11 12:24:44;;;;;;;20.00;13.40;;;;;;;11.69;75.23;99329.02;101762;1326;22493;-83
2022/11/11 12:27:37;;;;;;;22.30;13.60;;;;;;;11.65;75.19;99317.50;101795;1319;24479;-85
2022/11/11 12:30:28;;;;;;;16.10;14.40;;;;;;;11.64;74.73;99321.94;102470;1306;22573;-82
2022/11/11 12:33:36;;;;;;;19.20;13.80;;;;;;;11.58;74.92;99315.23;102148;1310;22520;-83
2022/11/11 12:36:28;;;;;;;17.10;13.70;;;;;;;11.55;75.66;99311.99;102035;1303;24345;-88
2022/11/11 12:39:44;;;;;;;17.10;13.50;;;;;;;11.57;76.08;99302.06;101960;1302;22540;-83
2022/11/11 12:42:50;;;;;;;16.00;12.90;;;;;;;11.58;76.53;99310.11;101808;1305;22511;-86
2022/11/11 12:45:58;;;;;;;;;;;;;;;11.61;76.54;99310.27;101753;1304;22624;-82
2022/11/11 12:49:10;;;;;;;19.20;16.70;;;;;;;11.57;76.05;99310.43;101602;1317;23242;-85
2022/11/11 12:52:36;;;;;;;18.10;15.20;;;;;;;11.55;76.47;99307.89;101619;1296;24513;-85
2022/11/11 12:55:56;;;;;;;16.00;13.30;;;;;;;11.57;76.16;99311.24;101542;1326;25397;-88
2022/11/11 12:59:03;;;;;;;15.30;11.60;;;;;;;11.60;76.78;99315.94;102185;1327;22499;-88
2022/11/11 13:02:02;;;;;;;18.60;15.80;;;;;;;11.63;77.03;99316.70;101507;1309;24429;-90
2022/11/11 13:05:06;;;;;;;20.00;12.30;;;;;;;11.63;76.29;99311.56;101816;1309;22508;-85
2022/11/11 13:08:08;;;;;;;13.40;11.50;;;;;;;11.57;76.61;99313.24;102542;1321;22480;-88
2022/11/11 13:11:26;;;;;;;20.90;13.40;;;;;;;11.52;76.02;99305.63;101636;1327;25653;-86
2022/11/11 13:14:38;;;;;;;17.80;13.10;;;;;;;11.45;76.38;99303.58;104434;1314;22557;-87
2022/11/11 13:17:25;;;;;;;16.90;12.70;;;;;;;11.43;76.96;99307.19;104738;1325;23453;-84
2022/11/11 13:20:21;;;;;;;17.10;11.60;;;;;;;11.42;76.97;99299.04;103193;1327;23620;-88
2022/11/11 13:23:09;;;;;;;17.40;12.90;;;;;;;11.38;76.98;99302.17;101689;1303;22524;-85
2022/11/11 13:26:00;;;;;;;15.90;12.70;;;;;;;11.38;76.70;99297.09;101667;1312;22647;-88
2022/11/11 13:28:50;;;;;;;15.80;11.50;;;;;;;11.36;77.08;99288.25;101711;1327;25783;-86
2022/11/11 13:31:39;;;;;;;16.50;12.20;;;;;;;11.37;77.06;99301.64;101489;1327;24427;-87
2022/11/11 13:34:33;;;;;;;19.10;11.20;;;;;;;11.34;76.76;99301.79;101683;1319;25385;-90
2022/11/11 13:37:28;;;;;;;46.00;41.30;;;;;;;11.33;76.30;99301.47;103249;1309;22140;-91
2022/11/11 13:40:32;;;;;;;19.30;17.20;;;;;;;11.30;75.96;99297.14;103291;1327;22820;-86
2022/11/11 13:43:24;;;;;;;30.60;23.60;;;;;;;11.29;76.24;99286.50;103141;1306;25286;-91
2022/11/11 13:46:33;;;;;;;20.50;17.80;;;;;;;11.32;76.68;99281.93;103155;1327;22612;-85
2022/11/11 13:49:39;;;;;;;15.20;12.20;;;;;;;11.33;76.76;99291.86;103150;1327;24402;-89
2022/11/11 13:52:33;;;;;;;23.20;13.90;;;;;;;11.33;76.36;99293.86;102714;1324;21972;-83
2022/11/11 13:55:40;;;;;;;17.10;14.30;;;;;;;11.30;76.41;99300.27;103045;1302;22646;-87
2022/11/11 13:58:35;;;;;;;13.80;10.70;;;;;;;11.25;76.12;99299.36;103823;1327;24294;-87
2022/11/11 14:01:22;;;;;;;21.90;13.90;;;;;;;11.23;76.22;99300.15;103718;1327;22587;-92
2022/11/11 14:04:10;;;;;;;29.40;18.00;;;;;;;11.19;76.28;99298.66;102261;1326;22567;-91
2022/11/11 14:06:56;;;;;;;31.70;26.40;;;;;;;11.17;76.32;99289.79;102714;1327;22514;-88
2022/11/11 14:10:01;;;;;;;18.60;15.60;;;;;;;11.18;76.30;99293.63;102568;1327;22560;-90
2022/11/11 14:12:55;;;;;;;18.00;13.30;;;;;;;11.22;76.02;99296.98;103212;1305;23369;-88
2022/11/11 14:15:47;;;;;;;16.90;12.10;;;;;;;11.26;76.40;99292.40;102687;1327;23899;-88
2022/11/11 14:18:41;;;;;;;17.60;11.10;;;;;;;11.29;76.78;99293.73;101832;1327;22788;-90
2022/11/11 14:21:48;;;;;;;14.80;11.90;;;;;;;11.29;76.26;99297.24;101664;1324;25385;-87
2022/11/11 14:24:44;;;;;;;15.00;10.50;;;;;;;11.29;75.97;99300.49;101435;1319;22612;-86
2022/11/11 14:27:33;;;;;;;16.70;11.70;;;;;;;11.36;75.84;99299.42;101670;1321;22619;-88